createdAt,value
2022-08-12T00:02:06.989Z,66.88
2022-08-12T00:12:28.032Z,66.84
2022-08-12T00:22:52.899Z,66.66
2022-08-12T00:33:22.594Z,66.26
2022-08-12T00:43:29.298Z,67.00
2022-08-12T00:53:32.299Z,67.46
2022-08-12T01:03:58.605Z,68.08
2022-08-12T01:14:03.385Z,68.18
2022-08-12T01:24:30.565Z,69.36
2022-08-12T01:34:39.941Z,69.69
2022-08-12T01:44:42.181Z,71.34
2022-08-12T01:54:47.584Z,70.54
2022-08-12T02:05:35.599Z,72.15
2022-08-12T02:16:03.292Z,72.91
2022-08-12T02:26:08.541Z,73.13
2022-08-12T02:36:10.717Z,73.27
2022-08-12T02:46:16.149Z,73.46
2022-08-12T02:56:19.144Z,74.25
2022-08-12T03:06:24.047Z,74.77
2022-08-12T03:16:28.374Z,75.25
2022-08-12T03:26:31.255Z,75.96
2022-08-12T03:36:35.863Z,76.67
2022-08-12T03:47:00.713Z,77.07
2022-08-12T03:57:21.489Z,77.40
2022-08-12T04:07:24.061Z,77.83
2022-08-12T04:17:29.694Z,78.54
2022-08-12T04:27:32.840Z,78.97
2022-08-12T04:37:58.094Z,79.26
2022-08-12T04:47:58.026Z,80.39
2022-08-12T04:58:00.646Z,81.00
2022-08-12T05:08:03.337Z,80.95
2022-08-12T05:18:19.116Z,81.56
2022-08-12T05:28:24.609Z,80.78
2022-08-12T05:38:45.377Z,80.92
2022-08-12T05:48:49.776Z,80.05
2022-08-12T05:58:52.708Z,78.70
2022-08-12T06:08:56.064Z,77.62
2022-08-12T06:18:58.706Z,76.60
2022-08-12T06:29:01.507Z,74.77
2022-08-12T06:39:03.988Z,70.87
2022-08-12T06:49:07.315Z,65.14
2022-08-12T06:59:11.686Z,64.13
2022-08-12T07:10:04.540Z,61.52
2022-08-12T07:19:45.267Z,60.03
2022-08-12T07:29:58.114Z,58.54
2022-08-12T07:40:12.436Z,53.50
2022-08-12T07:50:23.713Z,50.79
2022-08-12T08:00:34.187Z,48.95
2022-08-12T08:10:40.082Z,46.20
2022-08-12T08:20:46.907Z,45.79
2022-08-12T08:30:52.180Z,43.79
2022-08-12T08:41:15.086Z,40.34
2022-08-12T08:51:41.092Z,40.51
2022-08-12T09:01:44.761Z,37.22
2022-08-12T09:22:35.089Z,33.69
2022-08-12T09:33:04.205Z,35.67
2022-08-12T09:43:20.557Z,35.05
2022-08-12T09:54:08.747Z,34.57
2022-08-12T10:04:12.220Z,33.42
2022-08-12T10:14:17.649Z,31.96
2022-08-12T10:24:40.930Z,33.53
2022-08-12T10:34:59.361Z,32.00
2022-08-12T10:45:08.988Z,32.13
2022-08-12T10:55:17.249Z,32.47
2022-08-12T11:07:06.906Z,31.44
2022-08-12T11:16:18.761Z,30.22
2022-08-12T11:26:14.553Z,30.57
2022-08-12T11:36:22.459Z,30.44
2022-08-12T11:46:28.803Z,29.56
2022-08-12T11:56:38.322Z,31.81
2022-08-12T12:06:41.872Z,30.90
2022-08-12T12:16:58.844Z,27.86
2022-08-12T12:27:06.422Z,29.47
2022-08-12T12:37:16.145Z,29.64
2022-08-12T12:47:30.082Z,28.98
2022-08-12T12:58:00.060Z,27.13
2022-08-12T13:08:35.919Z,27.20
2022-08-12T13:18:42.458Z,25.61
2022-08-12T13:28:56.095Z,26.73
2022-08-12T13:39:01.333Z,25.31
2022-08-12T13:49:11.002Z,23.85
2022-08-12T13:59:24.800Z,24.82
2022-08-12T14:09:32.819Z,23.29
2022-08-12T14:20:01.231Z,21.97
2022-08-12T14:30:15.736Z,23.91
2022-08-12T14:40:27.763Z,24.54
2022-08-12T14:50:58.164Z,26.50
2022-08-12T15:01:12.894Z,22.24
2022-08-12T15:11:21.762Z,22.98
2022-08-12T15:21:25.051Z,24.03
2022-08-12T15:32:01.360Z,22.66
2022-08-12T15:41:55.480Z,24.61
2022-08-12T15:52:04.658Z,24.31
2022-08-12T16:02:08.462Z,25.36
2022-08-12T16:12:12.275Z,24.97
2022-08-12T16:22:17.966Z,25.32
2022-08-12T16:32:24.405Z,26.79
2022-08-12T16:42:28.224Z,26.74
2022-08-12T16:52:32.366Z,25.11
2022-08-12T17:02:37.912Z,26.82
2022-08-12T17:12:44.061Z,27.03
2022-08-12T17:22:54.139Z,27.39
2022-08-12T17:33:02.509Z,29.03
2022-08-12T17:43:52.221Z,29.09
2022-08-12T17:54:05.658Z,28.73
2022-08-12T18:04:20.466Z,29.36
2022-08-12T18:14:28.002Z,30.79
2022-08-12T18:24:31.557Z,30.55
2022-08-12T18:34:37.942Z,30.88
2022-08-12T18:44:42.309Z,32.15
2022-08-12T18:54:55.709Z,31.90
2022-08-12T19:05:08.094Z,32.14
2022-08-12T19:15:13.252Z,34.20
2022-08-12T19:25:22.982Z,34.67
2022-08-12T19:36:07.325Z,34.58
2022-08-12T19:46:09.506Z,35.23
2022-08-12T19:56:13.149Z,36.96
2022-08-12T20:06:21.836Z,38.23
2022-08-12T20:16:50.608Z,39.16
2022-08-12T20:26:52.313Z,41.70
2022-08-12T20:37:05.262Z,43.28
2022-08-12T20:47:18.110Z,44.50
2022-08-12T20:57:23.440Z,46.20
2022-08-12T21:07:25.893Z,48.07
2022-08-12T21:17:33.902Z,48.26
2022-08-12T21:27:58.676Z,49.90
2022-08-12T21:38:06.855Z,51.31
2022-08-12T21:48:11.822Z,52.22
2022-08-12T21:58:21.332Z,53.00
2022-08-12T22:08:26.200Z,54.18
2022-08-12T22:18:28.651Z,54.50
2022-08-12T22:28:59.128Z,56.28
2022-08-12T22:39:01.448Z,57.37
2022-08-12T22:49:06.691Z,57.67
2022-08-12T22:59:11.850Z,58.83
2022-08-12T23:09:17.561Z,59.56
2022-08-12T23:19:36.192Z,59.28
2022-08-12T23:29:43.862Z,60.01
2022-08-12T23:40:14.085Z,59.95
2022-08-12T23:50:18.854Z,59.83
